Aeroporto :
LOGIN :

Iscrizione | Disclaimer

   EN    FR    IT 

 










Sommario :    VFR   VFR Marginale   IFR   IFR Intensivo   IFR Molto Intensivo
Visibilità : 
Base nubi : 
>= 8 km
>= 3000ft
5 / 8 km
1000 / 3000 ft
1500m / 5 km
500 / 1000 ft
800 / 1500m
200 / 500 ft
< 800m
< 200 ft
Simboli :   Temporali  Nebbia  Neve Forte  Precipitazioni Forti  Vento > 20 kt
SIGMETs :   Varie  Temporali  Ghiacco  Turbolenza  Onda orograficha  Ceneri Vulcaniche






- Altitudine del aeroporto : 288 ft
- Codice IATA : BZZ


EGVN - RAF Brize Norton

ULTIMO METAR :
  • 281850Z 11009KT CAVOK 20/04 Q1030 NOSIG RMK BLU BLU

METARs OBSOLETI :
  • 281750Z 11009KT CAVOK 21/04 Q1030 NOSIG RMK BLU BLU
  • 281720Z 08009KT CAVOK 22/04 Q1030 NOSIG RMK BLU BLU
  • 281650Z 09010KT CAVOK 22/04 Q1030 NOSIG RMK BLU BLU
  • 281619Z 07009KT CAVOK 22/04 Q1030 NOSIG RMK BLU BLU

TAF TAF EGVN
Valido dal 28 a 18 ore il 29 a 18 ore UTC


281620Z 2818/2918 09010KT CAVOK



MetMap, La meteo Aeronautica in un colpo d'occhio ! - Copyright ORBIFLY Dicembre 2007 - Disclaimer

ORBIFLY MET'MAP TEAM :

Programmazione e sviluppo : Alexandra Zaïnal
Concezione : Baudouin d'Aumeries
Aiuto per la programmazione : Marc-Olivier Méhu
Supporto tecnico e logistico : Manuel Goepfert
Aiuto per la traduzione : Arnaldo La Scala

Contatto : metmap@orbifly.com




FONTI E CREDITI :

   NOAA